createdAt,value
2022-08-01T00:00:06.527Z,3.78
2022-08-01T00:02:36.636Z,3.30
2022-08-01T00:05:03.558Z,3.03
2022-08-01T00:07:31.077Z,3.33
2022-08-01T00:09:57.697Z,3.35
2022-08-01T00:12:24.329Z,2.80
2022-08-01T00:14:50.972Z,3.28
2022-08-01T00:17:17.661Z,3.75
2022-08-01T00:19:44.251Z,2.85
2022-08-01T00:22:10.847Z,3.53
2022-08-01T00:24:37.545Z,3.60
2022-08-01T00:27:04.309Z,3.08
2022-08-01T00:30:11.811Z,3.38
2022-08-01T00:32:17.823Z,3.70
2022-08-01T00:34:44.502Z,3.95
2022-08-01T00:37:13.687Z,4.30
2022-08-01T00:39:43.132Z,3.85
2022-08-01T00:42:12.088Z,4.10
2022-08-01T00:44:39.970Z,4.15
2022-08-01T00:47:07.687Z,5.00
2022-08-01T00:49:34.646Z,4.22
2022-08-01T00:52:02.319Z,4.10
2022-08-01T00:54:29.507Z,3.80
2022-08-01T00:56:56.853Z,3.53
2022-08-01T00:59:25.832Z,3.30
2022-08-01T01:01:53.061Z,3.28
2022-08-01T01:04:20.675Z,3.33
2022-08-01T01:06:52.933Z,3.00
2022-08-01T01:09:25.513Z,2.97
2022-08-01T01:12:13.644Z,3.50
2022-08-01T01:14:52.924Z,3.40
2022-08-01T01:17:49.408Z,3.80
2022-08-01T01:20:17.316Z,2.70
2022-08-01T01:23:23.733Z,2.63
2022-08-01T01:26:24.488Z,3.10
2022-08-01T01:29:14.524Z,2.53
2022-08-01T01:31:56.696Z,2.60
2022-08-01T01:34:24.728Z,2.83
2022-08-01T01:36:55.750Z,2.42
2022-08-01T01:39:25.431Z,2.90
2022-08-01T01:41:56.158Z,2.53
2022-08-01T01:44:22.857Z,2.45
2022-08-01T01:46:58.969Z,2.75
2022-08-01T01:49:27.967Z,3.13
2022-08-01T01:52:02.455Z,2.60
2022-08-01T01:54:34.179Z,3.05
2022-08-01T01:57:02.963Z,2.42
2022-08-01T01:59:32.905Z,2.50
2022-08-01T02:02:06.033Z,2.72
2022-08-01T02:04:36.996Z,3.03
2022-08-01T02:07:04.438Z,2.20
2022-08-01T02:09:33.030Z,2.33
2022-08-01T02:12:13.859Z,3.13
2022-08-01T02:14:43.235Z,2.27
2022-08-01T02:17:16.570Z,2.60
2022-08-01T02:19:43.540Z,2.28
2022-08-01T02:22:15.932Z,2.42
2022-08-01T02:25:11.097Z,2.88
2022-08-01T02:27:40.769Z,2.33
2022-08-01T02:30:09.571Z,2.67
2022-08-01T02:32:41.043Z,2.92
2022-08-01T02:35:15.091Z,3.08
2022-08-01T02:37:46.957Z,2.72
2022-08-01T02:40:16.916Z,2.53
2022-08-01T02:42:47.562Z,1.90
2022-08-01T02:45:14.946Z,2.55
2022-08-01T02:47:44.448Z,2.17
2022-08-01T02:50:13.947Z,2.25
2022-08-01T02:52:42.805Z,2.70
2022-08-01T02:55:11.748Z,2.65
2022-08-01T02:57:47.307Z,2.30
2022-08-01T03:00:18.820Z,2.60
2022-08-01T03:02:49.549Z,2.30
2022-08-01T03:05:18.152Z,2.25
2022-08-01T03:07:46.141Z,2.13
2022-08-01T03:10:17.127Z,2.42
2022-08-01T03:12:46.419Z,2.10
2022-08-01T03:15:17.339Z,2.40
2022-08-01T03:17:46.784Z,2.63
2022-08-01T03:20:16.408Z,2.45
2022-08-01T03:22:45.863Z,2.20
2022-08-01T03:25:14.767Z,2.70
2022-08-01T03:27:44.386Z,2.60
2022-08-01T03:30:12.367Z,2.58
2022-08-01T03:32:39.720Z,2.58
2022-08-01T03:35:07.170Z,3.30
2022-08-01T03:38:13.198Z,2.75
2022-08-01T03:40:39.753Z,2.63
2022-08-01T03:43:21.305Z,2.65
2022-08-01T03:45:52.571Z,3.10
2022-08-01T03:48:23.632Z,2.67
2022-08-01T03:50:53.388Z,2.63
2022-08-01T03:53:24.311Z,3.38
2022-08-01T03:55:51.876Z,3.33
2022-08-01T03:58:18.929Z,2.92
2022-08-01T04:00:46.398Z,3.22
2022-08-01T04:03:13.844Z,2.92
2022-08-01T04:05:43.919Z,3.15
2022-08-01T04:08:10.595Z,2.60
2022-08-01T04:10:38.163Z,2.97
2022-08-01T04:13:04.773Z,2.80
2022-08-01T04:15:31.602Z,3.13
2022-08-01T04:17:58.232Z,3.22
2022-08-01T04:20:24.883Z,3.10
2022-08-01T04:22:51.565Z,3.17
2022-08-01T04:25:25.115Z,3.40
2022-08-01T04:27:54.203Z,2.75
2022-08-01T04:30:25.611Z,3.25
2022-08-01T04:32:55.570Z,3.65
2022-08-01T04:36:04.219Z,4.32
2022-08-01T04:38:11.614Z,3.35
2022-08-01T04:40:39.228Z,3.58
2022-08-01T04:43:06.886Z,3.67
2022-08-01T04:45:34.557Z,3.20
2022-08-01T04:48:01.512Z,3.47
2022-08-01T04:50:29.095Z,3.88
2022-08-01T04:52:55.738Z,3.75
2022-08-01T04:55:22.474Z,3.60
2022-08-01T04:57:49.366Z,3.45
2022-08-01T05:00:17.588Z,3.90
2022-08-01T05:02:44.301Z,3.80
2022-08-01T05:05:11.553Z,3.92
2022-08-01T05:07:45.015Z,4.43
2022-08-01T05:10:12.682Z,2.95
2022-08-01T05:12:39.324Z,3.85
2022-08-01T05:15:10.590Z,3.53
2022-08-01T05:17:43.751Z,3.53
2022-08-01T05:20:12.514Z,3.10
2022-08-01T05:22:39.499Z,3.70
2022-08-01T05:25:06.949Z,3.92
2022-08-01T05:27:33.922Z,3.25
2022-08-01T05:30:00.601Z,3.53
2022-08-01T05:32:28.743Z,3.25
2022-08-01T05:34:55.463Z,3.15
2022-08-01T05:37:22.055Z,3.08
2022-08-01T05:39:48.701Z,3.28
2022-08-01T05:42:15.737Z,3.38
2022-08-01T05:44:42.392Z,2.53
2022-08-01T05:47:08.989Z,3.13
2022-08-01T05:49:35.688Z,2.80
2022-08-01T05:52:03.283Z,3.25
2022-08-01T05:54:30.435Z,3.60
2022-08-01T05:57:00.577Z,3.28
2022-08-01T05:59:27.376Z,3.25
2022-08-01T06:01:54.092Z,3.30
2022-08-01T06:04:20.902Z,3.35
2022-08-01T06:06:47.565Z,3.20
2022-08-01T06:09:14.203Z,2.80
2022-08-01T06:11:40.982Z,3.03
2022-08-01T06:14:07.713Z,3.17
2022-08-01T06:16:34.367Z,3.47
2022-08-01T06:19:01.543Z,3.33
2022-08-01T06:21:28.250Z,3.50
2022-08-01T06:23:54.899Z,3.15
2022-08-01T06:26:21.696Z,3.17
2022-08-01T06:28:48.299Z,3.70
2022-08-01T06:31:15.760Z,2.83
2022-08-01T06:33:42.500Z,3.25
2022-08-01T06:36:10.195Z,3.25
2022-08-01T06:38:36.965Z,2.95
2022-08-01T06:41:03.664Z,3.38
2022-08-01T06:43:30.669Z,2.92
2022-08-01T06:45:57.308Z,3.20
2022-08-01T06:48:24.023Z,3.05
2022-08-01T06:51:08.767Z,2.67
2022-08-01T06:53:37.427Z,3.10
2022-08-01T06:56:05.381Z,3.10
2022-08-01T06:58:32.296Z,2.90
2022-08-01T07:00:59.660Z,3.38
2022-08-01T07:03:27.897Z,2.85
2022-08-01T07:06:13.514Z,2.92
2022-08-01T07:08:41.872Z,2.63
2022-08-01T07:11:08.558Z,2.63
2022-08-01T07:13:43.943Z,2.28
2022-08-01T07:16:13.551Z,2.08
2022-08-01T07:18:40.662Z,1.90
2022-08-01T07:21:38.166Z,2.05
2022-08-01T07:23:55.807Z,1.63
2022-08-01T07:26:22.686Z,2.05
2022-08-01T07:28:49.323Z,1.92
2022-08-01T07:31:16.108Z,1.80
2022-08-01T07:33:48.372Z,1.65
2022-08-01T07:36:16.715Z,1.95
2022-08-01T07:38:43.678Z,1.90
2022-08-01T07:41:10.459Z,2.25
2022-08-01T07:43:37.300Z,1.75
2022-08-01T07:46:04.939Z,1.90
2022-08-01T07:48:32.224Z,1.75
2022-08-01T07:50:58.903Z,1.60
2022-08-01T07:53:25.711Z,2.35
2022-08-01T07:55:52.563Z,2.15
2022-08-01T07:58:19.281Z,2.40
2022-08-01T08:00:45.956Z,2.20
2022-08-01T08:03:12.606Z,2.30
2022-08-01T08:05:57.818Z,2.15
2022-08-01T08:08:26.036Z,2.55
2022-08-01T08:10:52.736Z,2.67
2022-08-01T08:13:19.317Z,2.28
2022-08-01T08:15:48.446Z,2.60
2022-08-01T08:18:15.878Z,2.88
2022-08-01T08:20:42.589Z,3.05
2022-08-01T08:23:42.794Z,2.92
2022-08-01T08:26:13.560Z,3.40
2022-08-01T08:28:40.836Z,3.88
2022-08-01T08:31:25.382Z,3.70
2022-08-01T08:33:55.208Z,2.90
2022-08-01T08:36:22.054Z,3.13
2022-08-01T08:38:57.785Z,2.60
2022-08-01T08:41:24.532Z,3.20
2022-08-01T08:43:51.221Z,3.28
2022-08-01T08:46:19.251Z,3.47
2022-08-01T08:48:56.810Z,3.60
2022-08-01T08:51:27.082Z,3.53
2022-08-01T08:53:56.634Z,3.15
2022-08-01T08:56:25.651Z,2.90
2022-08-01T08:58:55.398Z,2.90
2022-08-01T09:01:22.757Z,3.53
2022-08-01T09:03:49.976Z,3.25
2022-08-01T09:06:17.892Z,2.90
2022-08-01T09:08:44.541Z,3.25
2022-08-01T09:11:13.903Z,2.25
2022-08-01T09:14:04.494Z,2.58
2022-08-01T09:16:32.689Z,2.70
2022-08-01T09:19:39.514Z,2.50
2022-08-01T09:22:09.751Z,3.03
2022-08-01T09:24:37.519Z,2.53
2022-08-01T09:27:25.169Z,2.72
2022-08-01T09:30:00.759Z,2.83
2022-08-01T09:32:35.067Z,2.20
2022-08-01T09:35:29.788Z,2.83
2022-08-01T09:38:23.507Z,2.78
2022-08-01T09:40:50.325Z,2.65
2022-08-01T09:43:17.966Z,2.67
2022-08-01T09:45:50.643Z,3.17
2022-08-01T09:48:21.015Z,2.78
2022-08-01T09:50:52.139Z,2.53
2022-08-01T09:53:30.382Z,2.03
2022-08-01T09:56:10.277Z,2.50
2022-08-01T09:59:01.483Z,2.22
2022-08-01T10:01:50.455Z,2.20
2022-08-01T10:04:20.812Z,1.95
2022-08-01T10:06:55.841Z,2.08
2022-08-01T10:09:39.689Z,1.73
2022-08-01T10:12:08.814Z,2.55
2022-08-01T10:14:37.144Z,1.90
2022-08-01T10:17:07.912Z,2.08
2022-08-01T10:19:36.632Z,2.15
2022-08-01T10:22:08.382Z,2.10
2022-08-01T10:24:42.857Z,2.20
2022-08-01T10:27:12.340Z,2.03
2022-08-01T10:30:19.799Z,1.92
2022-08-01T10:32:54.878Z,1.85
2022-08-01T10:35:45.742Z,2.05
2022-08-01T10:38:10.730Z,2.20
2022-08-01T10:40:41.250Z,2.58
2022-08-01T10:43:10.602Z,2.20
2022-08-01T10:45:37.668Z,2.03
2022-08-01T10:48:10.819Z,2.00
2022-08-01T10:50:48.475Z,2.20
2022-08-01T10:53:24.231Z,2.10
2022-08-01T10:56:02.330Z,1.70
2022-08-01T10:58:42.955Z,2.13
2022-08-01T11:01:28.004Z,1.90
2022-08-01T11:04:07.012Z,1.83
2022-08-01T11:06:33.589Z,2.05
2022-08-01T11:09:05.925Z,1.42
2022-08-01T11:11:35.171Z,2.05
2022-08-01T11:14:10.525Z,1.83
2022-08-01T11:16:39.054Z,1.48
2022-08-01T11:19:09.226Z,1.80
2022-08-01T11:21:56.816Z,1.60
2022-08-01T11:24:52.283Z,2.13
2022-08-01T11:27:24.749Z,2.15
2022-08-01T11:30:13.381Z,1.73
2022-08-01T11:33:11.312Z,2.05
2022-08-01T11:35:59.040Z,1.80
2022-08-01T11:38:31.082Z,1.92
2022-08-01T11:41:23.616Z,1.83
2022-08-01T11:44:09.193Z,2.20
2022-08-01T11:46:51.317Z,1.80
2022-08-01T11:49:55.708Z,2.28
2022-08-01T11:52:30.865Z,1.77
2022-08-01T11:54:59.054Z,1.95
2022-08-01T11:57:38.192Z,1.67
2022-08-01T12:00:17.862Z,1.77
2022-08-01T12:02:46.792Z,1.90
2022-08-01T12:05:17.626Z,1.80
2022-08-01T12:07:46.866Z,1.90
2022-08-01T12:10:16.711Z,1.73
2022-08-01T12:12:49.414Z,2.17
2022-08-01T12:15:17.362Z,2.05
2022-08-01T12:17:57.449Z,1.90
2022-08-01T12:20:30.061Z,1.73
2022-08-01T12:22:59.461Z,1.50
2022-08-01T12:25:26.241Z,1.80
2022-08-01T12:27:56.565Z,1.88
2022-08-01T12:30:25.030Z,1.98
2022-08-01T12:32:53.257Z,1.63
2022-08-01T12:35:27.430Z,1.90
2022-08-01T12:37:57.099Z,1.60
2022-08-01T12:40:25.179Z,1.80
2022-08-01T12:42:54.230Z,2.00
2022-08-01T12:45:28.487Z,1.80
2022-08-01T12:47:56.324Z,1.85
2022-08-01T12:50:26.460Z,1.98
2022-08-01T12:52:53.418Z,2.50
2022-08-01T12:55:21.997Z,2.20
2022-08-01T12:57:52.655Z,2.28
2022-08-01T13:00:19.332Z,2.30
2022-08-01T13:02:48.429Z,2.22
2022-08-01T13:05:16.336Z,2.20
2022-08-01T13:07:48.545Z,1.98
2022-08-01T13:10:24.638Z,2.50
2022-08-01T13:12:57.462Z,2.05
2022-08-01T13:15:33.054Z,1.88
2022-08-01T13:18:02.230Z,2.03
2022-08-01T13:20:34.980Z,2.30
2022-08-01T13:23:21.337Z,1.80
2022-08-01T13:26:03.348Z,1.92
2022-08-01T13:28:31.720Z,2.10
2022-08-01T13:31:04.457Z,1.90
2022-08-01T13:33:43.330Z,2.00
2022-08-01T13:36:09.992Z,2.35
2022-08-01T13:38:55.007Z,2.45
2022-08-01T13:41:21.705Z,2.17
2022-08-01T13:43:58.901Z,1.90
2022-08-01T13:46:26.049Z,2.50
2022-08-01T13:48:56.205Z,2.37
2022-08-01T13:51:22.951Z,2.50
2022-08-01T13:53:49.663Z,2.03
2022-08-01T13:56:18.396Z,2.63
2022-08-01T13:58:45.600Z,2.47
2022-08-01T14:01:12.317Z,2.38
2022-08-01T14:03:39.110Z,2.20
2022-08-01T14:06:06.008Z,2.20
2022-08-01T14:08:32.660Z,2.47
2022-08-01T14:10:59.802Z,2.28
2022-08-01T14:13:32.174Z,2.35
2022-08-01T14:16:03.257Z,2.40
2022-08-01T14:18:29.902Z,2.10
2022-08-01T14:20:59.285Z,2.25
2022-08-01T14:23:32.474Z,2.00
2022-08-01T14:26:04.364Z,2.40
2022-08-01T14:28:34.418Z,2.50
2022-08-01T14:31:01.491Z,2.20
2022-08-01T14:33:29.295Z,2.17
2022-08-01T14:36:06.026Z,2.03
2022-08-01T14:38:46.366Z,2.25
2022-08-01T14:41:14.304Z,2.37
2022-08-01T14:43:40.906Z,2.38
2022-08-01T14:46:09.095Z,2.00
2022-08-01T14:48:35.713Z,2.45
2022-08-01T14:51:03.983Z,2.40
2022-08-01T14:53:31.740Z,2.53
2022-08-01T14:56:01.074Z,1.67
2022-08-01T14:58:27.745Z,1.90
2022-08-01T15:00:58.465Z,2.63
2022-08-01T15:03:26.004Z,2.67
2022-08-01T15:05:52.730Z,2.35
2022-08-01T15:08:19.339Z,2.60
2022-08-01T15:10:45.946Z,2.78
2022-08-01T15:13:12.565Z,2.92
2022-08-01T15:15:39.135Z,2.83
2022-08-01T15:18:06.087Z,3.15
2022-08-01T15:20:33.886Z,2.83
2022-08-01T15:23:00.842Z,2.67
2022-08-01T15:25:41.317Z,2.40
2022-08-01T15:28:10.257Z,2.30
2022-08-01T15:30:36.882Z,2.20
2022-08-01T15:33:03.752Z,2.53
2022-08-01T15:35:30.407Z,2.20
2022-08-01T15:37:57.045Z,1.90
2022-08-01T15:40:23.710Z,2.10
2022-08-01T15:42:50.495Z,2.60
2022-08-01T15:45:45.852Z,1.95
2022-08-01T15:50:35.491Z,2.38
2022-08-01T15:53:02.229Z,2.50
2022-08-01T15:55:28.922Z,1.63
2022-08-01T15:57:55.937Z,1.67
2022-08-01T16:00:22.831Z,2.20
2022-08-01T16:02:49.440Z,1.70
2022-08-01T16:05:17.201Z,1.70
2022-08-01T16:07:59.399Z,2.40
2022-08-01T16:10:29.152Z,1.60
2022-08-01T16:12:55.873Z,1.73
2022-08-01T16:15:22.597Z,1.60
2022-08-01T16:18:03.478Z,1.90
2022-08-01T16:20:30.083Z,1.70
2022-08-01T16:22:56.765Z,1.77
2022-08-01T16:25:23.587Z,1.95
2022-08-01T16:27:50.362Z,2.00
2022-08-01T16:30:17.186Z,2.30
2022-08-01T16:32:48.791Z,2.42
2022-08-01T16:35:20.457Z,1.75
2022-08-01T16:37:47.156Z,1.85
2022-08-01T16:40:13.800Z,2.10
2022-08-01T16:42:40.493Z,2.30
2022-08-01T16:45:13.721Z,1.92
2022-08-01T16:47:41.428Z,1.92
2022-08-01T16:50:09.623Z,2.35
2022-08-01T16:52:41.926Z,2.60
2022-08-01T16:55:11.445Z,2.38
2022-08-01T16:57:38.744Z,2.67
2022-08-01T17:00:12.088Z,2.13
2022-08-01T17:02:48.418Z,2.33
2022-08-01T17:05:16.180Z,2.50
2022-08-01T17:07:42.845Z,2.38
2022-08-01T17:10:10.387Z,2.63
2022-08-01T17:12:37.045Z,2.13
2022-08-01T17:15:04.274Z,2.38
2022-08-01T17:17:30.975Z,2.00
2022-08-01T17:19:57.636Z,2.15
2022-08-01T17:22:24.258Z,2.30
2022-08-01T17:24:53.563Z,2.50
2022-08-01T17:27:20.543Z,2.58
2022-08-01T17:29:47.143Z,2.03
2022-08-01T17:32:14.219Z,2.58
2022-08-01T17:34:42.565Z,3.25
2022-08-01T17:37:10.107Z,2.95
2022-08-01T17:39:39.636Z,2.40
2022-08-01T17:42:10.930Z,2.30
2022-08-01T17:44:38.147Z,2.47
2022-08-01T17:47:06.374Z,2.40
2022-08-01T17:49:53.966Z,2.38
2022-08-01T17:52:20.231Z,2.50
2022-08-01T17:54:47.443Z,2.03
2022-08-01T17:57:14.104Z,2.20
2022-08-01T17:59:40.812Z,2.03
2022-08-01T18:02:07.420Z,2.60
2022-08-01T18:04:35.735Z,2.28
2022-08-01T18:07:11.318Z,2.78
2022-08-01T18:09:43.890Z,2.65
2022-08-01T18:12:13.453Z,2.78
2022-08-01T18:14:41.276Z,2.90
2022-08-01T18:17:11.766Z,2.95
2022-08-01T18:19:39.519Z,3.00
2022-08-01T18:22:19.506Z,4.10
2022-08-01T18:24:54.992Z,3.08
2022-08-01T18:27:21.615Z,3.97
2022-08-01T18:29:50.051Z,3.33
2022-08-01T18:32:18.082Z,2.97
2022-08-01T18:34:44.677Z,3.22
2022-08-01T18:37:14.145Z,2.92
2022-08-01T18:39:41.567Z,1.98
2022-08-01T18:42:10.521Z,2.20
2022-08-01T18:44:37.229Z,2.20
2022-08-01T18:47:04.959Z,2.70
2022-08-01T18:49:31.998Z,2.78
2022-08-01T18:51:59.032Z,2.30
2022-08-01T18:54:27.261Z,2.58
2022-08-01T18:56:54.123Z,3.10
2022-08-01T18:59:21.618Z,2.60
2022-08-01T19:01:48.516Z,2.50
2022-08-01T19:04:15.281Z,2.63
2022-08-01T19:06:42.355Z,2.65
2022-08-01T19:09:09.350Z,2.63
2022-08-01T19:11:36.484Z,2.88
2022-08-01T19:14:03.776Z,2.60
2022-08-01T19:16:31.115Z,2.50
2022-08-01T19:18:59.042Z,2.30
2022-08-01T19:21:25.991Z,2.10
2022-08-01T19:24:10.919Z,2.05
2022-08-01T19:26:40.308Z,2.30
2022-08-01T19:29:33.014Z,2.50
2022-08-01T19:32:05.625Z,2.30
2022-08-01T19:34:35.646Z,2.20
2022-08-01T19:37:03.724Z,2.35
2022-08-01T19:39:31.055Z,2.85
2022-08-01T19:41:59.423Z,2.38
2022-08-01T19:44:28.801Z,2.53
2022-08-01T19:46:55.913Z,2.88
2022-08-01T19:49:23.485Z,3.35
2022-08-01T19:51:53.014Z,3.38
2022-08-01T19:54:21.412Z,3.33
2022-08-01T19:56:49.105Z,3.42
2022-08-01T19:59:23.843Z,3.42
2022-08-01T20:01:52.577Z,3.70
2022-08-01T20:04:19.847Z,3.50
2022-08-01T20:06:47.825Z,3.83
2022-08-01T20:09:16.013Z,3.55
2022-08-01T20:11:47.930Z,3.83
2022-08-01T20:14:18.302Z,3.20
2022-08-01T20:16:45.935Z,3.22
2022-08-01T20:19:12.940Z,2.97
2022-08-01T20:21:43.826Z,2.60
2022-08-01T20:24:35.278Z,2.42
2022-08-01T20:27:08.242Z,2.47
2022-08-01T20:29:36.588Z,2.63
2022-08-01T20:32:04.399Z,2.95
2022-08-01T20:34:37.167Z,2.38
2022-08-01T20:37:07.020Z,2.50
2022-08-01T20:39:36.341Z,2.40
2022-08-01T20:42:04.107Z,1.90
2022-08-01T20:44:34.464Z,1.88
2022-08-01T20:47:05.125Z,1.80
2022-08-01T20:49:33.250Z,1.90
2022-08-01T20:52:10.943Z,1.95
2022-08-01T20:54:38.164Z,2.50
2022-08-01T20:57:09.152Z,2.42
2022-08-01T20:59:56.555Z,2.50
2022-08-01T21:02:42.935Z,2.35
2022-08-01T21:05:11.562Z,2.03
2022-08-01T21:07:50.565Z,1.88
2022-08-01T21:10:21.613Z,2.20
2022-08-01T21:12:53.435Z,1.90
2022-08-01T21:15:33.748Z,2.00
2022-08-01T21:18:16.387Z,2.05
2022-08-01T21:20:48.154Z,1.85
2022-08-01T21:23:25.141Z,1.65
2022-08-01T21:25:52.672Z,2.05
2022-08-01T21:28:21.354Z,1.88
2022-08-01T21:30:53.659Z,1.85
2022-08-01T21:33:24.935Z,1.70
2022-08-01T21:36:00.107Z,1.80
2022-08-01T21:38:31.372Z,1.50
2022-08-01T21:41:03.172Z,1.67
2022-08-01T21:43:32.518Z,2.10
2022-08-01T21:46:00.296Z,1.90
2022-08-01T21:48:30.745Z,1.92
2022-08-01T21:51:00.305Z,2.37
2022-08-01T21:53:43.544Z,1.80
2022-08-01T21:56:35.480Z,2.20
2022-08-01T21:59:07.668Z,2.25
2022-08-01T22:02:01.772Z,2.13
2022-08-01T22:04:39.446Z,1.88
2022-08-01T22:07:10.446Z,1.73
2022-08-01T22:09:39.750Z,1.70
2022-08-01T22:12:07.642Z,1.90
2022-08-01T22:14:42.055Z,1.98
2022-08-01T22:17:11.846Z,1.73
2022-08-01T22:19:45.484Z,1.75
2022-08-01T22:22:44.570Z,1.83
2022-08-01T22:25:01.657Z,1.58
2022-08-01T22:28:06.481Z,1.67
2022-08-01T22:30:17.656Z,2.08
2022-08-01T22:32:45.937Z,1.73
2022-08-01T22:35:33.425Z,2.05
2022-08-01T22:38:00.070Z,1.88
2022-08-01T22:40:28.870Z,1.55
2022-08-01T22:42:59.912Z,1.58
2022-08-01T22:45:51.563Z,1.85
2022-08-01T22:48:32.759Z,2.10
2022-08-01T22:51:06.983Z,2.08
2022-08-01T22:53:48.176Z,1.67
2022-08-01T22:56:15.832Z,1.90
2022-08-01T22:58:44.393Z,2.00
2022-08-01T23:01:21.308Z,2.15
2022-08-01T23:03:51.630Z,2.17
2022-08-01T23:06:25.867Z,2.13
2022-08-01T23:08:55.723Z,2.72
2022-08-01T23:11:23.568Z,2.08
2022-08-01T23:13:53.676Z,2.67
2022-08-01T23:16:21.839Z,2.25
2022-08-01T23:18:49.298Z,2.72
2022-08-01T23:21:16.835Z,2.17
2022-08-01T23:23:45.935Z,2.40
2022-08-01T23:26:15.494Z,2.88
2022-08-01T23:28:43.530Z,2.40
2022-08-01T23:31:11.738Z,2.30
2022-08-01T23:33:39.085Z,1.98
2022-08-01T23:36:06.160Z,2.45
2022-08-01T23:38:32.816Z,2.50
2022-08-01T23:40:59.471Z,2.60
2022-08-01T23:43:26.143Z,2.20
2022-08-01T23:46:04.116Z,2.50
2022-08-01T23:48:36.103Z,2.17
2022-08-01T23:51:04.309Z,2.20
2022-08-01T23:53:31.468Z,2.10
2022-08-01T23:55:59.105Z,1.85
2022-08-01T23:58:29.681Z,2.35
